sensor_id;sensor_type;location;lat;lon;timestamp;P1;durP1;ratioP1;P2;durP2;ratioP2
18194;SDS011;9223;50.988;3.162;2023-03-14T00:05:44;2.60;;;1.10;;
18194;SDS011;9223;50.988;3.162;2023-03-14T00:11:48;2.95;;;0.85;;
18194;SDS011;9223;50.988;3.162;2023-03-14T00:17:53;3.53;;;1.23;;
18194;SDS011;9223;50.988;3.162;2023-03-14T00:23:56;2.17;;;0.95;;
18194;SDS011;9223;50.988;3.162;2023-03-14T00:30:00;4.35;;;1.15;;
18194;SDS011;9223;50.988;3.162;2023-03-14T00:36:05;4.07;;;1.17;;
18194;SDS011;9223;50.988;3.162;2023-03-14T00:42:10;3.65;;;1.33;;
18194;SDS011;9223;50.988;3.162;2023-03-14T00:48:13;3.67;;;1.02;;
18194;SDS011;9223;50.988;3.162;2023-03-14T00:54:18;5.88;;;1.30;;
18194;SDS011;9223;50.988;3.162;2023-03-14T01:00:23;4.57;;;1.02;;
18194;SDS011;9223;50.988;3.162;2023-03-14T01:06:27;6.28;;;1.65;;
18194;SDS011;9223;50.988;3.162;2023-03-14T01:12:32;4.10;;;1.13;;
18194;SDS011;9223;50.988;3.162;2023-03-14T01:18:36;5.88;;;1.17;;
18194;SDS011;9223;50.988;3.162;2023-03-14T01:24:40;4.75;;;1.17;;
18194;SDS011;9223;50.988;3.162;2023-03-14T01:30:45;1.92;;;0.90;;
18194;SDS011;9223;50.988;3.162;2023-03-14T01:36:48;3.75;;;1.10;;
18194;SDS011;9223;50.988;3.162;2023-03-14T01:42:55;4.53;;;0.90;;
18194;SDS011;9223;50.988;3.162;2023-03-14T01:49:05;3.55;;;0.70;;
18194;SDS011;9223;50.988;3.162;2023-03-14T01:55:12;2.63;;;0.77;;
18194;SDS011;9223;50.988;3.162;2023-03-14T02:01:16;4.10;;;1.00;;
18194;SDS011;9223;50.988;3.162;2023-03-14T02:07:24;3.97;;;0.95;;
18194;SDS011;9223;50.988;3.162;2023-03-14T02:13:29;4.40;;;0.90;;
18194;SDS011;9223;50.988;3.162;2023-03-14T02:19:36;2.42;;;0.80;;
18194;SDS011;9223;50.988;3.162;2023-03-14T02:25:50;2.38;;;0.50;;
18194;SDS011;9223;50.988;3.162;2023-03-14T02:31:56;1.95;;;0.80;;
18194;SDS011;9223;50.988;3.162;2023-03-14T02:38:00;2.22;;;0.50;;
18194;SDS011;9223;50.988;3.162;2023-03-14T02:44:06;2.17;;;0.70;;
18194;SDS011;9223;50.988;3.162;2023-03-14T02:50:12;1.95;;;0.40;;
18194;SDS011;9223;50.988;3.162;2023-03-14T02:56:17;2.38;;;0.75;;
18194;SDS011;9223;50.988;3.162;2023-03-14T03:02:20;2.10;;;0.50;;
18194;SDS011;9223;50.988;3.162;2023-03-14T03:08:26;1.88;;;0.80;;
18194;SDS011;9223;50.988;3.162;2023-03-14T03:14:30;1.02;;;0.60;;
18194;SDS011;9223;50.988;3.162;2023-03-14T03:20:33;1.92;;;0.80;;
18194;SDS011;9223;50.988;3.162;2023-03-14T03:26:38;2.35;;;0.60;;
18194;SDS011;9223;50.988;3.162;2023-03-14T03:32:41;3.17;;;0.70;;
18194;SDS011;9223;50.988;3.162;2023-03-14T03:38:45;1.60;;;0.55;;
18194;SDS011;9223;50.988;3.162;2023-03-14T03:44:50;1.08;;;0.73;;
18194;SDS011;9223;50.988;3.162;2023-03-14T03:50:53;2.13;;;0.60;;
18194;SDS011;9223;50.988;3.162;2023-03-14T03:56:57;2.58;;;0.70;;
18194;SDS011;9223;50.988;3.162;2023-03-14T04:03:01;1.00;;;0.90;;
18194;SDS011;9223;50.988;3.162;2023-03-14T04:09:05;1.20;;;0.50;;
18194;SDS011;9223;50.988;3.162;2023-03-14T04:15:09;2.55;;;0.80;;
18194;SDS011;9223;50.988;3.162;2023-03-14T04:21:15;1.73;;;0.68;;
18194;SDS011;9223;50.988;3.162;2023-03-14T04:27:18;1.27;;;0.60;;
18194;SDS011;9223;50.988;3.162;2023-03-14T04:33:22;1.88;;;0.60;;
18194;SDS011;9223;50.988;3.162;2023-03-14T04:39:27;3.40;;;0.85;;
18194;SDS011;9223;50.988;3.162;2023-03-14T04:45:30;1.95;;;0.80;;
18194;SDS011;9223;50.988;3.162;2023-03-14T04:51:34;2.00;;;0.80;;
18194;SDS011;9223;50.988;3.162;2023-03-14T04:57:39;1.90;;;1.30;;
18194;SDS011;9223;50.988;3.162;2023-03-14T05:03:43;2.60;;;1.48;;
18194;SDS011;9223;50.988;3.162;2023-03-14T05:09:46;1.67;;;0.73;;
18194;SDS011;9223;50.988;3.162;2023-03-14T05:15:51;2.20;;;0.73;;
18194;SDS011;9223;50.988;3.162;2023-03-14T05:21:56;2.90;;;1.00;;
18194;SDS011;9223;50.988;3.162;2023-03-14T05:28:00;2.65;;;0.98;;
18194;SDS011;9223;50.988;3.162;2023-03-14T05:34:06;4.10;;;1.08;;
18194;SDS011;9223;50.988;3.162;2023-03-14T05:40:10;5.63;;;0.80;;
18194;SDS011;9223;50.988;3.162;2023-03-14T05:46:13;5.45;;;0.90;;
18194;SDS011;9223;50.988;3.162;2023-03-14T05:52:18;3.00;;;1.15;;
18194;SDS011;9223;50.988;3.162;2023-03-14T05:58:21;3.15;;;1.30;;
18194;SDS011;9223;50.988;3.162;2023-03-14T06:04:25;4.30;;;1.27;;
18194;SDS011;9223;50.988;3.162;2023-03-14T06:10:30;4.35;;;1.52;;
18194;SDS011;9223;50.988;3.162;2023-03-14T06:16:34;5.88;;;2.20;;
18194;SDS011;9223;50.988;3.162;2023-03-14T06:22:37;5.28;;;1.65;;
18194;SDS011;9223;50.988;3.162;2023-03-14T06:28:43;5.22;;;1.90;;
18194;SDS011;9223;50.988;3.162;2023-03-14T06:34:46;6.47;;;1.85;;
18194;SDS011;9223;50.988;3.162;2023-03-14T06:40:49;6.00;;;1.83;;
18194;SDS011;9223;50.988;3.162;2023-03-14T06:46:54;6.72;;;2.03;;
18194;SDS011;9223;50.988;3.162;2023-03-14T06:52:58;8.23;;;2.08;;
18194;SDS011;9223;50.988;3.162;2023-03-14T06:59:01;5.35;;;1.38;;
18194;SDS011;9223;50.988;3.162;2023-03-14T07:05:07;4.22;;;1.27;;
18194;SDS011;9223;50.988;3.162;2023-03-14T07:11:11;5.93;;;1.45;;
18194;SDS011;9223;50.988;3.162;2023-03-14T07:17:15;6.25;;;1.77;;
18194;SDS011;9223;50.988;3.162;2023-03-14T07:23:20;6.20;;;1.52;;
18194;SDS011;9223;50.988;3.162;2023-03-14T07:29:23;7.60;;;1.85;;
18194;SDS011;9223;50.988;3.162;2023-03-14T07:35:27;8.23;;;1.92;;
18194;SDS011;9223;50.988;3.162;2023-03-14T07:41:32;6.53;;;2.00;;
18194;SDS011;9223;50.988;3.162;2023-03-14T07:47:36;6.57;;;1.60;;
18194;SDS011;9223;50.988;3.162;2023-03-14T07:53:39;6.10;;;1.60;;
18194;SDS011;9223;50.988;3.162;2023-03-14T07:59:45;8.07;;;1.45;;
18194;SDS011;9223;50.988;3.162;2023-03-14T08:05:49;3.78;;;1.30;;
18194;SDS011;9223;50.988;3.162;2023-03-14T08:11:53;5.70;;;1.13;;
18194;SDS011;9223;50.988;3.162;2023-03-14T08:18:00;7.18;;;1.30;;
18194;SDS011;9223;50.988;3.162;2023-03-14T08:24:03;4.43;;;1.45;;
18194;SDS011;9223;50.988;3.162;2023-03-14T08:30:08;4.47;;;1.00;;
18194;SDS011;9223;50.988;3.162;2023-03-14T08:36:13;4.05;;;1.15;;
18194;SDS011;9223;50.988;3.162;2023-03-14T08:42:17;8.35;;;1.70;;
18194;SDS011;9223;50.988;3.162;2023-03-14T08:48:20;5.28;;;1.50;;
18194;SDS011;9223;50.988;3.162;2023-03-14T08:54:25;6.50;;;1.35;;
18194;SDS011;9223;50.988;3.162;2023-03-14T09:00:29;3.58;;;1.13;;
18194;SDS011;9223;50.988;3.162;2023-03-14T09:06:32;6.65;;;1.58;;
18194;SDS011;9223;50.988;3.162;2023-03-14T09:12:38;3.95;;;1.00;;
18194;SDS011;9223;50.988;3.162;2023-03-14T09:18:41;4.75;;;1.20;;
18194;SDS011;9223;50.988;3.162;2023-03-14T09:24:45;3.60;;;0.93;;
18194;SDS011;9223;50.988;3.162;2023-03-14T09:30:50;4.68;;;0.90;;
18194;SDS011;9223;50.988;3.162;2023-03-14T09:36:53;3.35;;;1.30;;
18194;SDS011;9223;50.988;3.162;2023-03-14T09:42:57;4.07;;;1.15;;
18194;SDS011;9223;50.988;3.162;2023-03-14T09:49:02;5.55;;;1.10;;
18194;SDS011;9223;50.988;3.162;2023-03-14T09:55:06;4.88;;;1.10;;
18194;SDS011;9223;50.988;3.162;2023-03-14T10:01:14;3.30;;;1.33;;
18194;SDS011;9223;50.988;3.162;2023-03-14T10:07:21;4.28;;;0.95;;
18194;SDS011;9223;50.988;3.162;2023-03-14T10:13:26;3.25;;;0.80;;
18194;SDS011;9223;50.988;3.162;2023-03-14T10:19:30;5.57;;;1.30;;
18194;SDS011;9223;50.988;3.162;2023-03-14T10:25:36;3.17;;;1.00;;
18194;SDS011;9223;50.988;3.162;2023-03-14T10:31:47;2.38;;;0.70;;
18194;SDS011;9223;50.988;3.162;2023-03-14T10:37:53;1.70;;;0.60;;
18194;SDS011;9223;50.988;3.162;2023-03-14T10:44:00;3.42;;;0.90;;
18194;SDS011;9223;50.988;3.162;2023-03-14T10:50:23;1.52;;;0.65;;
18194;SDS011;9223;50.988;3.162;2023-03-14T10:56:27;1.90;;;0.75;;
18194;SDS011;9223;50.988;3.162;2023-03-14T11:02:43;1.30;;;0.60;;
18194;SDS011;9223;50.988;3.162;2023-03-14T11:08:50;2.05;;;0.75;;
18194;SDS011;9223;50.988;3.162;2023-03-14T11:14:57;2.35;;;0.82;;
18194;SDS011;9223;50.988;3.162;2023-03-14T11:21:07;1.10;;;0.70;;
18194;SDS011;9223;50.988;3.162;2023-03-14T11:27:15;1.15;;;0.68;;
18194;SDS011;9223;50.988;3.162;2023-03-14T11:33:21;4.07;;;1.40;;
18194;SDS011;9223;50.988;3.162;2023-03-14T11:39:29;0.70;;;0.70;;
18194;SDS011;9223;50.988;3.162;2023-03-14T11:45:39;1.77;;;1.10;;
18194;SDS011;9223;50.988;3.162;2023-03-14T11:51:46;1.75;;;1.00;;
18194;SDS011;9223;50.988;3.162;2023-03-14T11:57:51;4.65;;;1.38;;
18194;SDS011;9223;50.988;3.162;2023-03-14T12:03:56;6.78;;;1.10;;
18194;SDS011;9223;50.988;3.162;2023-03-14T12:10:01;9.88;;;1.95;;
18194;SDS011;9223;50.988;3.162;2023-03-14T12:16:09;9.48;;;2.53;;
18194;SDS011;9223;50.988;3.162;2023-03-14T12:22:26;5.25;;;1.45;;
18194;SDS011;9223;50.988;3.162;2023-03-14T12:28:30;8.00;;;1.75;;
18194;SDS011;9223;50.988;3.162;2023-03-14T12:34:35;10.77;;;2.38;;
18194;SDS011;9223;50.988;3.162;2023-03-14T12:40:47;11.60;;;2.20;;
18194;SDS011;9223;50.988;3.162;2023-03-14T12:46:55;12.98;;;2.85;;
18194;SDS011;9223;50.988;3.162;2023-03-14T12:59:29;3.10;;;0.82;;
18194;SDS011;9223;50.988;3.162;2023-03-14T13:05:33;6.57;;;1.30;;
18194;SDS011;9223;50.988;3.162;2023-03-14T13:11:39;5.78;;;1.33;;
18194;SDS011;9223;50.988;3.162;2023-03-14T13:17:45;5.50;;;1.20;;
18194;SDS011;9223;50.988;3.162;2023-03-14T13:23:55;5.45;;;1.80;;
18194;SDS011;9223;50.988;3.162;2023-03-14T13:30:02;4.63;;;1.77;;
18194;SDS011;9223;50.988;3.162;2023-03-14T13:36:09;11.52;;;1.58;;
18194;SDS011;9223;50.988;3.162;2023-03-14T13:42:14;6.05;;;1.40;;
18194;SDS011;9223;50.988;3.162;2023-03-14T13:48:18;6.13;;;1.20;;
18194;SDS011;9223;50.988;3.162;2023-03-14T13:54:24;2.38;;;0.65;;
18194;SDS011;9223;50.988;3.162;2023-03-14T14:00:29;1.83;;;0.43;;
18194;SDS011;9223;50.988;3.162;2023-03-14T14:06:34;2.03;;;0.60;;
18194;SDS011;9223;50.988;3.162;2023-03-14T14:12:40;3.05;;;0.47;;
18194;SDS011;9223;50.988;3.162;2023-03-14T14:18:47;2.58;;;0.88;;
18194;SDS011;9223;50.988;3.162;2023-03-14T14:24:50;3.00;;;1.05;;
18194;SDS011;9223;50.988;3.162;2023-03-14T14:31:02;2.83;;;1.05;;
18194;SDS011;9223;50.988;3.162;2023-03-14T14:37:13;2.88;;;0.90;;
18194;SDS011;9223;50.988;3.162;2023-03-14T14:43:18;3.25;;;0.57;;
18194;SDS011;9223;50.988;3.162;2023-03-14T14:49:27;3.42;;;0.90;;
18194;SDS011;9223;50.988;3.162;2023-03-14T14:55:31;1.77;;;0.50;;
18194;SDS011;9223;50.988;3.162;2023-03-14T15:01:36;2.92;;;1.10;;
18194;SDS011;9223;50.988;3.162;2023-03-14T15:07:42;1.25;;;0.63;;
18194;SDS011;9223;50.988;3.162;2023-03-14T15:13:45;3.17;;;0.80;;
18194;SDS011;9223;50.988;3.162;2023-03-14T15:19:49;4.13;;;0.88;;
18194;SDS011;9223;50.988;3.162;2023-03-14T15:25:54;1.75;;;0.60;;
18194;SDS011;9223;50.988;3.162;2023-03-14T15:31:57;5.15;;;0.80;;
18194;SDS011;9223;50.988;3.162;2023-03-14T15:38:02;3.90;;;1.00;;
18194;SDS011;9223;50.988;3.162;2023-03-14T15:44:07;3.83;;;1.20;;
18194;SDS011;9223;50.988;3.162;2023-03-14T15:50:10;10.90;;;2.80;;
18194;SDS011;9223;50.988;3.162;2023-03-14T15:56:14;3.28;;;1.30;;
18194;SDS011;9223;50.988;3.162;2023-03-14T16:02:20;4.13;;;1.20;;
18194;SDS011;9223;50.988;3.162;2023-03-14T16:08:24;5.63;;;1.40;;
18194;SDS011;9223;50.988;3.162;2023-03-14T16:14:27;5.05;;;1.60;;
18194;SDS011;9223;50.988;3.162;2023-03-14T16:20:32;6.47;;;2.17;;
18194;SDS011;9223;50.988;3.162;2023-03-14T16:26:48;6.60;;;1.40;;
18194;SDS011;9223;50.988;3.162;2023-03-14T16:32:51;8.82;;;1.65;;
18194;SDS011;9223;50.988;3.162;2023-03-14T16:38:56;6.68;;;2.15;;
18194;SDS011;9223;50.988;3.162;2023-03-14T16:45:00;8.82;;;2.00;;
18194;SDS011;9223;50.988;3.162;2023-03-14T16:51:04;5.55;;;1.80;;
18194;SDS011;9223;50.988;3.162;2023-03-14T16:57:09;10.38;;;2.10;;
18194;SDS011;9223;50.988;3.162;2023-03-14T17:03:13;7.60;;;1.50;;
18194;SDS011;9223;50.988;3.162;2023-03-14T17:09:17;10.73;;;1.98;;
18194;SDS011;9223;50.988;3.162;2023-03-14T17:15:22;8.77;;;2.17;;
18194;SDS011;9223;50.988;3.162;2023-03-14T17:21:27;7.15;;;1.55;;
18194;SDS011;9223;50.988;3.162;2023-03-14T17:27:31;11.25;;;2.63;;
18194;SDS011;9223;50.988;3.162;2023-03-14T17:33:37;9.88;;;2.00;;
18194;SDS011;9223;50.988;3.162;2023-03-14T17:39:41;6.55;;;1.50;;
18194;SDS011;9223;50.988;3.162;2023-03-14T17:45:45;5.72;;;1.75;;
18194;SDS011;9223;50.988;3.162;2023-03-14T17:51:49;11.32;;;3.08;;
18194;SDS011;9223;50.988;3.162;2023-03-14T17:57:53;11.50;;;4.22;;
18194;SDS011;9223;50.988;3.162;2023-03-14T18:03:57;10.27;;;4.45;;
18194;SDS011;9223;50.988;3.162;2023-03-14T18:10:04;10.02;;;5.25;;
18194;SDS011;9223;50.988;3.162;2023-03-14T18:16:10;8.07;;;3.75;;
18194;SDS011;9223;50.988;3.162;2023-03-14T18:22:15;28.30;;;11.25;;
18194;SDS011;9223;50.988;3.162;2023-03-14T18:28:20;10.95;;;5.00;;
18194;SDS011;9223;50.988;3.162;2023-03-14T18:34:24;15.07;;;7.28;;
18194;SDS011;9223;50.988;3.162;2023-03-14T18:40:27;14.48;;;6.10;;
18194;SDS011;9223;50.988;3.162;2023-03-14T18:46:32;15.35;;;7.10;;
18194;SDS011;9223;50.988;3.162;2023-03-14T18:52:36;11.48;;;5.10;;
18194;SDS011;9223;50.988;3.162;2023-03-14T18:58:40;13.73;;;5.80;;
18194;SDS011;9223;50.988;3.162;2023-03-14T19:04:45;16.65;;;6.50;;
18194;SDS011;9223;50.988;3.162;2023-03-14T19:10:48;13.88;;;5.50;;
18194;SDS011;9223;50.988;3.162;2023-03-14T19:16:53;18.35;;;5.30;;
18194;SDS011;9223;50.988;3.162;2023-03-14T19:22:58;11.02;;;5.05;;
18194;SDS011;9223;50.988;3.162;2023-03-14T19:29:02;10.88;;;5.03;;
18194;SDS011;9223;50.988;3.162;2023-03-14T19:35:06;14.90;;;6.32;;
18194;SDS011;9223;50.988;3.162;2023-03-14T19:41:12;8.60;;;4.85;;
18194;SDS011;9223;50.988;3.162;2023-03-14T19:47:15;11.85;;;5.97;;
18194;SDS011;9223;50.988;3.162;2023-03-14T19:53:19;12.98;;;5.22;;
18194;SDS011;9223;50.988;3.162;2023-03-14T19:59:24;10.98;;;4.10;;
18194;SDS011;9223;50.988;3.162;2023-03-14T20:05:27;7.63;;;4.15;;
18194;SDS011;9223;50.988;3.162;2023-03-14T20:11:31;12.45;;;4.13;;
18194;SDS011;9223;50.988;3.162;2023-03-14T20:17:42;8.65;;;4.65;;
18194;SDS011;9223;50.988;3.162;2023-03-14T20:23:45;12.45;;;6.25;;
18194;SDS011;9223;50.988;3.162;2023-03-14T20:29:54;9.73;;;4.68;;
18194;SDS011;9223;50.988;3.162;2023-03-14T20:35:59;10.35;;;5.55;;
18194;SDS011;9223;50.988;3.162;2023-03-14T20:42:03;8.60;;;3.67;;
18194;SDS011;9223;50.988;3.162;2023-03-14T20:48:07;11.23;;;4.10;;
18194;SDS011;9223;50.988;3.162;2023-03-14T20:54:12;14.25;;;5.38;;
18194;SDS011;9223;50.988;3.162;2023-03-14T21:00:16;10.30;;;4.50;;
18194;SDS011;9223;50.988;3.162;2023-03-14T21:06:19;8.55;;;3.30;;
18194;SDS011;9223;50.988;3.162;2023-03-14T21:12:25;8.27;;;3.28;;
18194;SDS011;9223;50.988;3.162;2023-03-14T21:18:29;3.88;;;2.85;;
18194;SDS011;9223;50.988;3.162;2023-03-14T21:24:33;4.72;;;2.53;;
18194;SDS011;9223;50.988;3.162;2023-03-14T21:30:38;4.22;;;2.25;;
18194;SDS011;9223;50.988;3.162;2023-03-14T21:36:42;4.63;;;2.60;;
18194;SDS011;9223;50.988;3.162;2023-03-14T21:42:46;7.00;;;2.03;;
18194;SDS011;9223;50.988;3.162;2023-03-14T21:48:51;3.72;;;1.85;;
18194;SDS011;9223;50.988;3.162;2023-03-14T21:54:55;7.38;;;2.00;;
18194;SDS011;9223;50.988;3.162;2023-03-14T22:00:59;5.57;;;2.28;;
18194;SDS011;9223;50.988;3.162;2023-03-14T22:07:08;3.22;;;2.03;;
18194;SDS011;9223;50.988;3.162;2023-03-14T22:13:12;4.93;;;1.75;;
18194;SDS011;9223;50.988;3.162;2023-03-14T22:19:16;3.38;;;1.75;;
18194;SDS011;9223;50.988;3.162;2023-03-14T22:25:22;3.20;;;1.75;;
18194;SDS011;9223;50.988;3.162;2023-03-14T22:31:25;3.85;;;2.10;;
18194;SDS011;9223;50.988;3.162;2023-03-14T22:37:29;4.13;;;1.80;;
18194;SDS011;9223;50.988;3.162;2023-03-14T22:43:34;4.55;;;1.75;;
18194;SDS011;9223;50.988;3.162;2023-03-14T22:49:37;3.92;;;1.35;;
18194;SDS011;9223;50.988;3.162;2023-03-14T22:55:41;4.78;;;1.15;;
18194;SDS011;9223;50.988;3.162;2023-03-14T23:01:46;3.63;;;1.30;;
18194;SDS011;9223;50.988;3.162;2023-03-14T23:07:49;4.30;;;1.10;;
18194;SDS011;9223;50.988;3.162;2023-03-14T23:13:53;3.28;;;1.50;;
18194;SDS011;9223;50.988;3.162;2023-03-14T23:19:58;5.32;;;1.45;;
18194;SDS011;9223;50.988;3.162;2023-03-14T23:26:02;2.08;;;1.20;;
18194;SDS011;9223;50.988;3.162;2023-03-14T23:32:06;1.92;;;0.70;;
18194;SDS011;9223;50.988;3.162;2023-03-14T23:38:11;2.60;;;1.30;;
18194;SDS011;9223;50.988;3.162;2023-03-14T23:44:14;2.95;;;1.30;;
18194;SDS011;9223;50.988;3.162;2023-03-14T23:50:18;1.95;;;1.00;;
18194;SDS011;9223;50.988;3.162;2023-03-14T23:56:22;2.15;;;1.00;;
